Station: Ingham Aerodrome  

  Atmospheric Gas Attenuation - ITU Rec 676-11   ----------------- dB/100km -----------------
Date Time Temp RH % AH g/m3 Dew Point Wind Direction Speed kph Gust kph Barometer mB Rainfall Since 9am 24GHz 47GHz 76GHz 122GHz 134GHz 241GHz
08/05 12:30 27.8 67 18.02 21.1 17 28 1015.9 0 38.6 37.1 70.2 185.5 202.6 703.8
08/05 12:20 27.3 67 17.53 20.6 13 22 1016 0 37.6 36.4 68.4 180.9 196.8 683.7
08/05 12:10 26.7 66 16.71 19.8 20 22 1016.1 0 35.9 35.2 65.4 172.8 186.6 648.1
08/05 12:00 27.1 66 17.08 20.2 17 30 1016.2 0 36.7 35.7 66.7 176.2 190.9 663.1
08/05 11:50 27.7 65 17.39 20.5 13 19 1016.3 0 37.3 36.0 67.5 178.4 193.8 673.3
08/05 11:40 27.4 65 17.1 20.2 11 17 1016.4 0 36.7 35.6 66.5 175.8 190.4 661.6
08/05 11:30 27.6 66 17.56 20.7 17 30 1016.6 0 37.6 36.4 68.3 180.7 196.5 682.8
08/05 11:20 27.1 66 17.08 20.4 15 24 1016.7 0 36.7 35.7 66.7 176.3 191.0 663.3
08/05 11:10 27.6 65 17.29 20.6 19 20 1016.7 0 37.1 35.9 67.2 177.6 192.7 669.4
08/05 11:00 26.7 66 16.71 19.8 17 28 1016.9 0 35.9 35.3 65.4 172.9 186.7 648.4
08/05 10:50 27.4 67 17.63 20.7 13 19 1017.1 0 37.8 36.6 68.9 182.0 198.1 688.4
08/05 10:40 27.6 67 17.83 20.9 11 15 1017.1 0 38.2 36.9 69.6 183.9 200.5 696.6
08/05 10:30 26.7 64 16.2 19.5 15 24 1017.1 0 34.9 34.4 63.2 167.1 179.5 623.4
08/05 10:20 27.1 66 17.08 20.2 17 22 1017.2 0 36.7 35.8 66.7 176.3 191.0 663.5
08/05 10:10 26.8 66 16.8 19.9 11 17 1017.2 0 36.1 35.4 65.8 173.8 187.8 652.2
08/05 10:00 26.9 68 17.4 20.5 15 24 1017.2 0 37.4 36.4 68.3 180.5 196.1 681.3
08/05 09:50 26.5 66 16.52 19.8 9 15 1017.2 0 35.5 35.0 64.8 171.2 184.5 640.8
08/05 09:40 26.5 66 16.52 19.8 13 20 1017.2 0 35.5 35.0 64.8 171.2 184.5 640.8
08/05 09:30 26.4 71 17.67 20.7 9 19 1017.2 0 38.0 37.1 70.0 184.9 201.4 699.5
08/05 09:20 25.4 74 17.42 20.4 7 11 1017.1 0 37.5 37.1 69.7 184.3 200.3 695.7
08/05 09:10 25.3 80 18.73 21.6 6 7 1017 0 40.3 39.6 75.9 200.6 220.3 765.2
08/05 09:00 25.4 80 18.83 21.7 6 9 1016.9 0 40.5 39.7 76.2 201.6 221.5 769.5
08/05 08:50 24.7 80 18.11 21 2 4 1016.8 0 39.1 38.7 73.5 194.4 212.6 738.2
08/05 08:40 25.3 84 19.66 22.4 2 4 1016.8 0 42.3 41.3 80.3 212.3 234.7 815.2
08/05 08:30 24.5 87 19.47 22.2 0 0 1016.7 0 42.0 41.3 80.2 212.1 234.2 813.4
08/05 08:20 23.6 92 19.57 22.2 0 0 1016.7 0 42.3 42.0 81.6 216.0 238.7 828.8
08/05 08:10 22.7 93 18.79 21.6 0 0 1016.6 0 40.7 40.9 78.8 208.3 229.0 795.2
08/05 08:00 22.1 97 18.93 21.6 2 4 1016.4 0 41.1 41.5 80.1 211.8 233.1 809.3
08/05 07:50 21.8 100 19.18 21.8 4 4 1016.3 0 41.7 42.1 81.6 216.0 238.1 826.6
08/05 07:40 21.4 100 18.75 21.4 0 0 1016.2 0 40.8 41.5 79.9 211.4 232.4 806.6
08/05 07:30 21.1 100 18.42 21.1 0 0 1016.1 0 40.1 40.9 78.6 207.9 228.0 791.2
08/05 07:20 20.7 100 18 20.7 2 2 1016.1 0 39.2 40.3 77.0 203.5 222.4 771.9
08/05 07:10 20 100 17.28 20 2 2 1015.9 0 37.8 39.2 74.1 195.9 212.9 738.8
08/05 07:00 19.6 100 16.88 19.6 0 0 1015.8 0 36.9 38.6 72.6 191.8 207.7 720.6
08/05 06:50 19.4 100 16.68 19.4 0 0 1015.7 0 36.5 38.3 71.8 189.7 205.1 711.5
08/05 06:40 19.4 100 16.68 19.4 0 0 1015.6 0 36.5 38.3 71.8 189.7 205.1 711.4
08/05 06:30 19.6 100 16.88 19.6 0 0 1015.6 0 37.0 38.6 72.5 191.7 207.7 720.5
08/05 06:20 19.7 100 16.98 19.7 0 0 1015.4 0 37.2 38.8 72.9 192.7 209.0 724.9
08/05 06:10 19.8 100 17.08 19.8 0 0 1015.2 0 37.4 38.9 73.3 193.7 210.2 729.4
08/05 06:00 19.9 100 17.18 19.9 0 0 1015.1 0 37.6 39.0 73.7 194.8 211.5 733.9
08/05 05:50 19.9 100 17.18 19.9 0 0 1015 0 37.6 39.0 73.7 194.7 211.5 733.8
08/05 05:40 19.9 100 17.18 19.9 0 0 1014.8 0 37.6 39.0 73.7 194.7 211.5 733.7
08/05 05:30 20 100 17.28 20 0 0 1014.7 0 37.8 39.2 74.0 195.7 212.8 738.2
08/05 05:20 20.1 100 17.38 20.1 0 0 1014.7 0 38.0 39.3 74.4 196.8 214.1 742.8
08/05 05:10 20.2 100 17.48 20.2 0 0 1014.6 0 38.2 39.5 74.8 197.8 215.4 747.3
08/05 05:00 20.2 100 17.48 20.2 2 4 1014.5 0 38.2 39.5 74.8 197.8 215.3 747.2
08/05 04:50 20.1 100 17.38 20.1 2 4 1014.4 0 38.0 39.3 74.4 196.7 214.0 742.6
08/05 04:40 20 100 17.28 20 4 4 1014.4 0 37.8 39.2 74.0 195.7 212.7 738.1
08/05 04:30 19.9 100 17.18 19.9 4 4 1014.4 0 37.6 39.0 73.6 194.7 211.4 733.5
08/05 04:20 19.8 100 17.08 19.8 2 2 1014.4 0 37.4 38.9 73.2 193.6 210.1 729.0
08/05 04:10 19.7 100 16.98 19.7 4 4 1014.4 0 37.2 38.7 72.9 192.6 208.8 724.4
08/05 04:00 19.7 100 16.98 19.7 4 4 1014.3 0 37.2 38.7 72.9 192.6 208.8 724.4
08/05 03:50 19.6 100 16.88 19.6 4 4 1014.3 0 37.0 38.6 72.5 191.5 207.5 719.8
08/05 03:40 19.5 100 16.78 19.5 2 4 1014.3 0 36.8 38.4 72.1 190.5 206.2 715.3
08/05 03:30 19.8 100 17.08 19.8 2 2 1014.2 0 37.4 38.9 73.2 193.6 210.1 728.9
08/05 03:20 19.6 100 16.88 19.6 2 2 1014.2 0 37.0 38.6 72.5 191.5 207.5 719.8
08/05 03:10 19.7 100 16.98 19.7 2 4 1014.2 0 37.2 38.7 72.8 192.6 208.8 724.3
08/05 03:00 19.8 100 17.08 19.8 2 4 1014.2 0 37.4 38.9 73.2 193.6 210.1 728.9
08/05 02:50 19.8 100 17.08 19.8 4 4 1014.2 0 37.4 38.9 73.2 193.6 210.1 728.9
08/05 02:40 20 100 17.28 20 2 2 1014.2 0 37.8 39.1 74.0 195.7 212.7 738.0
08/05 02:30 19.9 100 17.18 19.9 2 2 1014.3 0 37.6 39.0 73.6 194.6 211.4 733.5
08/05 02:20 20.1 100 17.38 20.1 2 4 1014.5 0 38.0 39.3 74.4 196.7 214.0 742.7
08/05 02:10 20 100 17.28 20 6 6 1014.5 0 37.8 39.2 74.0 195.7 212.7 738.1
08/05 02:00 20.2 100 17.48 20.2 2 6 1014.5 0 38.2 39.5 74.8 197.8 215.3 747.2
08/05 01:50 20.2 100 17.48 20.2 4 4 1014.5 0 38.2 39.5 74.8 197.8 215.3 747.2
08/05 01:40 20.1 100 17.38 20.1 4 4 1014.6 0 38.0 39.3 74.4 196.8 214.0 742.7
08/05 01:30 20.1 100 17.38 20.1 4 6 1014.6 0 38.0 39.3 74.4 196.8 214.0 742.7
08/05 01:20 20.2 100 17.48 20.2 4 4 1014.7 0 38.2 39.5 74.8 197.8 215.4 747.3
08/05 01:10 20.3 100 17.59 20.3 4 4 1014.7 0 38.4 39.6 75.3 199.0 216.8 752.4
08/05 01:00 20.2 100 17.48 20.2 4 6 1014.8 0 38.2 39.5 74.8 197.8 215.4 747.4
08/05 00:50 20.3 100 17.59 20.3 4 4 1014.8 0 38.4 39.6 75.3 199.0 216.8 752.5
08/05 00:40 20.6 100 17.9 20.6 4 4 1014.9 0 39.1 40.1 76.5 202.2 220.9 766.7
08/05 00:30 20.6 100 17.9 20.6 4 4 1014.9 0 39.1 40.1 76.5 202.2 220.9 766.7
08/05 00:20 20.7 100 18 20.7 4 4 1015 0 39.3 40.3 76.9 203.3 222.2 771.3
08/05 00:10 20.8 100 18.11 20.8 2 4 1015.1 0 39.5 40.4 77.3 204.5 223.7 776.5
08/05 00:00 20.6 100 17.9 20.6 0 0 1015.1 0 39.1 40.1 76.5 202.3 221.0 766.8
07/05 23:50 20.5 100 17.79 20.5 0 0 1015.1 0 38.8 39.9 76.1 201.1 219.5 761.7
07/05 23:40 20.6 100 17.9 20.6 0 0 1015.1 0 39.1 40.1 76.5 202.3 221.0 766.8
07/05 23:30 20.6 100 17.9 20.6 0 0 1015.2 0 39.1 40.1 76.5 202.3 221.0 766.9
07/05 23:20 20.8 100 18.11 20.8 0 0 1015.3 0 39.5 40.4 77.3 204.5 223.8 776.6
07/05 23:10 20.9 100 18.21 20.9 0 0 1015.4 0 39.7 40.6 77.7 205.6 225.1 781.2
07/05 23:00 21.1 100 18.42 21.1 0 0 1015.5 0 40.1 40.9 78.6 207.8 227.9 790.9
07/05 22:50 20.9 100 18.21 20.9 0 0 1015.6 0 39.7 40.6 77.7 205.6 225.1 781.3
07/05 22:40 20.9 100 18.21 20.9 0 0 1015.6 0 39.7 40.6 77.7 205.6 225.1 781.3
07/05 22:30 20.9 100 18.21 20.9 0 0 1015.7 0 39.7 40.6 77.8 205.6 225.1 781.3
07/05 22:20 20.9 100 18.21 20.9 0 0 1015.8 0 39.7 40.6 77.8 205.6 225.1 781.4
07/05 22:10 21 100 18.32 21 0 0 1015.7 0 39.9 40.8 78.2 206.8 226.6 786.5
07/05 22:00 21 100 18.32 21 0 0 1015.7 0 39.9 40.8 78.2 206.8 226.6 786.5
07/05 21:50 20.9 100 18.21 20.9 0 0 1015.8 0 39.7 40.6 77.8 205.6 225.1 781.4
07/05 21:40 20.9 100 18.21 20.9 0 0 1015.8 0 39.7 40.6 77.8 205.6 225.1 781.4
07/05 21:30 21 100 18.32 21 0 0 1015.7 0 39.9 40.8 78.2 206.8 226.6 786.5
07/05 21:20 21 100 18.32 21 0 0 1015.8 0 39.9 40.8 78.2 206.8 226.6 786.5
07/05 21:10 21.1 100 18.42 21.1 0 0 1015.8 0 40.1 40.9 78.6 207.8 227.9 791.1
07/05 21:00 20.9 100 18.21 20.9 0 0 1015.8 0 39.7 40.6 77.8 205.6 225.1 781.4
07/05 20:50 20.8 100 18.11 20.8 0 0 1015.8 0 39.5 40.5 77.4 204.6 223.8 776.8
07/05 20:40 20.6 99 17.72 20.4 0 0 1015.8 0 38.7 39.8 75.7 200.0 218.2 757.2
07/05 20:30 20.6 99 17.72 20.4 0 0 1015.6 0 38.7 39.8 75.7 200.0 218.2 757.1
07/05 20:20 20.6 99 17.72 20.4 0 0 1015.6 0 38.7 39.8 75.7 200.0 218.2 757.1
07/05 20:10 21.1 99 18.24 20.9 0 0 1015.5 0 39.7 40.6 77.7 205.4 225.0 780.8
07/05 20:00 21.1 99 18.24 20.9 0 0 1015.4 0 39.7 40.6 77.7 205.4 225.0 780.8

Last Refresh: 08-May-2026 12:09:21

Bureau of Meteorology